Time;durP1;ratioP1;P1;durP2;ratioP2;P2;SDS_P1;SDS_P2;PMS_P1;PMS_P2;Temp;Humidity;BMP_temperature;BMP_pressure;BME280_temperature;BME280_humidity;BME280_pressure;Samples;Min_cycle;Max_cycle;Signal;HPM_P1;HPM_P2
2022/06/15 00:01:47;;;;;;;4.43;3.47;;;;;;;17.22;49.45;98945.28;2623623;39;20433;-68
2022/06/15 00:04:16;;;;;;;5.47;3.83;;;;;;;17.14;49.91;98936.81;2622825;46;20064;-66
2022/06/15 00:06:46;;;;;;;3.75;2.85;;;;;;;17.09;50.09;98940.19;2623141;54;20569;-68
2022/06/15 00:09:18;;;;;;;5.18;3.60;;;;;;;17.12;50.06;98929.06;2622540;54;20038;-68
2022/06/15 00:11:48;;;;;;;5.03;2.97;;;;;;;17.04;50.00;98932.88;2622781;54;20027;-68
2022/06/15 00:14:21;;;;;;;5.18;3.80;;;;;;;16.89;50.52;98929.84;2619129;54;20565;-68
2022/06/15 00:16:52;;;;;;;5.10;3.17;;;;;;;16.78;50.43;98917.31;2618776;54;20038;-66
2022/06/15 00:19:22;;;;;;;5.10;3.50;;;;;;;16.73;50.81;98920.63;2618001;54;20023;-66
2022/06/15 00:21:52;;;;;;;4.28;2.95;;;;;;;16.70;50.87;98917.59;2617942;54;20041;-66
2022/06/15 00:24:24;;;;;;;3.72;3.20;;;;;;;16.63;51.20;98916.88;2617980;54;20041;-66
2022/06/15 00:26:54;;;;;;;3.70;3.20;;;;;;;16.76;50.83;98919.38;2618680;54;20030;-68
2022/06/15 00:29:23;;;;;;;4.10;3.03;;;;;;;16.70;51.02;98923.75;2618744;54;20550;-68
2022/06/15 00:31:53;;;;;;;5.85;3.33;;;;;;;16.76;51.21;98922.84;2618625;54;20065;-67
2022/06/15 00:34:23;;;;;;;9.48;3.55;;;;;;;16.72;51.22;98924.31;2618159;47;20026;-68
2022/06/15 00:36:52;;;;;;;4.68;3.22;;;;;;;16.74;50.91;98916.94;2618750;54;20026;-68
2022/06/15 00:39:25;;;;;;;3.60;3.22;;;;;;;16.63;51.14;98917.69;2618122;47;20534;-68
2022/06/15 00:41:54;;;;;;;4.75;3.10;;;;;;;16.54;51.13;98919.06;2619004;54;20552;-68
2022/06/15 00:44:35;;;;;;;4.60;3.38;;;;;;;16.35;51.86;98916.44;2618295;54;20543;-68
2022/06/15 00:47:14;;;;;;;6.20;3.22;;;;;;;16.32;51.68;98926.75;2619053;54;20022;-69
2022/06/15 00:49:47;;;;;;;7.28;3.30;;;;;;;16.34;51.76;98912.16;2619110;54;20530;-67
2022/06/15 00:52:19;;;;;;;6.25;3.17;;;;;;;16.34;51.79;98909.50;2618783;54;20573;-68
2022/06/15 00:54:53;;;;;;;5.22;3.65;;;;;;;16.30;51.91;98900.31;2618928;54;20053;-68
2022/06/15 00:57:23;;;;;;;6.18;2.88;;;;;;;16.24;51.66;98909.22;2618846;54;20044;-67
2022/06/15 00:59:56;;;;;;;3.20;2.90;;;;;;;16.15;52.26;98907.09;2618467;47;20030;-68
2022/06/15 01:02:28;;;;;;;4.90;3.60;;;;;;;16.03;52.63;98897.19;2618793;54;20031;-68
2022/06/15 01:05:03;;;;;;;5.68;3.55;;;;;;;16.12;52.45;98904.88;2618344;47;20038;-67
2022/06/15 01:07:53;;;;;;;5.13;3.80;;;;;;;16.12;52.38;98904.88;2618277;47;20042;-66
2022/06/15 01:10:41;;;;;;;4.22;3.72;;;;;;;16.07;52.47;98890.38;2618641;47;20033;-67
2022/06/15 01:13:32;;;;;;;5.38;4.03;;;;;;;16.08;52.74;98892.03;2618620;47;20227;-66
2022/06/15 01:16:05;;;;;;;4.40;3.50;;;;;;;15.98;52.91;98893.59;2618349;54;20049;-67
2022/06/15 01:18:48;;;;;;;4.07;3.10;;;;;;;15.97;52.66;98894.63;2618250;54;20026;-68
2022/06/15 01:21:28;;;;;;;5.80;3.88;;;;;;;16.00;53.02;98887.00;2618022;54;20022;-67
2022/06/15 01:24:30;;;;;;;3.78;3.25;;;;;;;16.01;52.89;98885.16;2619062;54;20026;-67
2022/06/15 01:27:33;;;;;;;2.88;2.65;;;;;;;15.93;52.51;98891.59;2618063;53;20057;-66
2022/06/15 01:30:20;;;;;;;5.20;3.10;;;;;;;15.80;52.88;98889.91;2619021;54;20255;-67
2022/06/15 01:33:17;;;;;;;4.18;3.03;;;;;;;15.79;52.95;98887.47;2618696;54;20539;-68
2022/06/15 01:35:58;;;;;;;3.42;2.80;;;;;;;15.82;53.19;98881.69;2618250;47;20057;-66
2022/06/15 01:38:39;;;;;;;3.65;2.78;;;;;;;15.83;53.06;98886.78;2619071;46;20058;-66
2022/06/15 01:41:15;;;;;;;4.15;2.95;;;;;;;15.89;52.57;98893.09;2619247;46;20046;-66
2022/06/15 01:43:52;;;;;;;4.30;2.90;;;;;;;15.81;52.79;98886.22;2618390;47;20083;-67
2022/06/15 01:46:25;;;;;;;3.47;2.80;;;;;;;15.69;52.92;98893.31;2618695;54;20031;-66
2022/06/15 01:48:59;;;;;;;3.67;2.90;;;;;;;15.72;52.53;98892.88;2618127;54;20034;-67
2022/06/15 01:51:34;;;;;;;4.13;3.05;;;;;;;15.74;52.21;98895.31;2619766;39;20440;-67
2022/06/15 01:54:09;;;;;;;4.10;3.00;;;;;;;15.71;52.28;98888.56;2618253;54;20031;-67
2022/06/15 01:56:44;;;;;;;4.57;2.55;;;;;;;15.73;52.57;98880.38;2618447;39;20428;-65
2022/06/15 01:59:22;;;;;;;4.70;3.03;;;;;;;15.76;52.65;98879.94;2617755;54;20038;-66
2022/06/15 02:02:03;;;;;;;4.47;2.92;;;;;;;15.81;51.93;98878.22;2619038;31;20511;-66
2022/06/15 02:04:39;;;;;;;5.10;2.63;;;;;;;15.88;52.15;98878.13;2618754;54;20026;-66
2022/06/15 02:07:18;;;;;;;4.88;2.92;;;;;;;15.87;51.79;98884.47;2617925;47;20546;-66
2022/06/15 02:09:54;;;;;;;4.10;2.47;;;;;;;15.84;51.96;98876.97;2617767;54;20056;-67
2022/06/15 02:12:32;;;;;;;4.90;2.42;;;;;;;15.80;51.57;98881.94;2617758;54;20535;-66
2022/06/15 02:15:04;;;;;;;5.03;2.65;;;;;;;15.76;51.75;98880.75;2618381;39;20417;-67
2022/06/15 02:17:41;;;;;;;4.88;2.85;;;;;;;15.79;52.24;98887.47;2617754;47;20023;-67
2022/06/15 02:20:18;;;;;;;4.20;2.67;;;;;;;15.71;52.14;98883.25;2618818;39;20407;-67
2022/06/15 02:22:51;;;;;;;3.85;2.33;;;;;;;15.62;51.92;98879.22;2618872;54;20039;-66
2022/06/15 02:25:25;;;;;;;3.42;2.90;;;;;;;15.53;52.44;98880.56;2619000;54;20045;-67
2022/06/15 02:27:58;;;;;;;3.55;2.50;;;;;;;15.50;52.06;98881.00;2618607;54;20034;-67
2022/06/15 02:30:29;;;;;;;4.15;3.03;;;;;;;15.53;52.01;98880.56;2619785;54;20030;-67
2022/06/15 02:33:13;;;;;;;2.92;2.63;;;;;;;15.47;51.87;98881.44;2618851;47;20030;-67
2022/06/15 02:35:44;;;;;;;3.83;2.50;;;;;;;15.34;51.91;98885.06;2618807;47;20027;-68
2022/06/15 02:38:21;;;;;;;4.55;3.22;;;;;;;15.25;52.35;98889.06;2618813;47;20079;-67
2022/06/15 02:40:51;;;;;;;5.22;2.83;;;;;;;15.27;52.51;98893.16;2618876;54;20057;-68
2022/06/15 02:43:25;;;;;;;3.00;2.70;;;;;;;15.29;52.38;98887.59;2618680;47;20029;-67
2022/06/15 02:45:58;;;;;;;2.88;2.60;;;;;;;15.27;52.46;98887.81;2619424;54;20039;-67
2022/06/15 02:48:38;;;;;;;4.75;2.60;;;;;;;15.28;52.99;98891.28;2618859;54;20034;-67
2022/06/15 02:51:13;;;;;;;3.53;3.17;;;;;;;15.29;52.96;98893.72;2619239;47;20038;-67
2022/06/15 02:53:49;;;;;;;4.00;3.40;;;;;;;15.24;53.17;98890.13;2619413;54;20030;-67
2022/06/15 02:56:20;;;;;;;3.92;2.97;;;;;;;15.22;52.90;98900.16;2623565;54;20026;-67
2022/06/15 02:58:53;;;;;;;4.07;2.85;;;;;;;15.19;53.12;98896.09;2621176;47;20058;-67
2022/06/15 03:01:24;;;;;;;3.55;3.22;;;;;;;15.18;53.16;98902.44;2622190;47;20039;-66
2022/06/15 03:03:56;;;;;;;6.15;3.40;;;;;;;15.14;53.19;98893.25;2620864;47;20035;-67
2022/06/15 03:06:30;;;;;;;5.22;3.17;;;;;;;15.08;53.98;98894.16;2620075;47;20026;-66
2022/06/15 03:09:05;;;;;;;6.35;3.28;;;;;;;15.05;53.68;98894.59;2620180;54;20030;-65
2022/06/15 03:11:45;;;;;;;6.10;3.53;;;;;;;14.78;54.05;98896.69;2620444;54;20023;-66
2022/06/15 03:14:18;;;;;;;6.18;3.88;;;;;;;14.67;54.81;98895.53;2620592;54;20038;-66
2022/06/15 03:16:51;;;;;;;5.65;4.35;;;;;;;14.66;54.98;98895.75;2621202;54;20038;-67
2022/06/15 03:19:26;;;;;;;7.80;3.53;;;;;;;14.58;54.92;98899.50;2622102;54;20026;-65
2022/06/15 03:22:02;;;;;;;5.18;3.50;;;;;;;14.49;55.48;98896.28;2622343;54;20065;-65
2022/06/15 03:24:35;;;;;;;3.95;3.58;;;;;;;14.59;55.45;98891.28;2622588;47;20569;-67
2022/06/15 03:27:08;;;;;;;4.60;4.00;;;;;;;14.61;55.07;98896.38;2624055;47;20033;-67
2022/06/15 03:29:39;;;;;;;5.95;3.92;;;;;;;14.41;55.84;98893.00;2623818;54;20030;-67
2022/06/15 03:32:15;;;;;;;5.78;3.85;;;;;;;14.46;56.09;98899.34;2624213;54;20029;-65
2022/06/15 03:34:54;;;;;;;5.00;3.60;;;;;;;14.45;56.00;98899.53;2624514;54;20034;-66
2022/06/15 03:37:24;;;;;;;6.68;4.00;;;;;;;14.51;55.84;98896.06;2624776;54;20038;-66
2022/06/15 03:40:00;;;;;;;4.50;3.58;;;;;;;14.44;56.38;98898.72;2624908;54;20122;-67
2022/06/15 03:42:36;;;;;;;4.60;4.20;;;;;;;14.51;55.76;98893.41;2624500;54;20030;-66
2022/06/15 03:45:06;;;;;;;4.85;3.67;;;;;;;14.50;55.93;98897.09;2624634;54;20038;-67
2022/06/15 03:47:38;;;;;;;4.30;3.90;;;;;;;14.43;56.39;98896.28;2625942;54;20027;-66
2022/06/15 03:50:12;;;;;;;6.22;4.20;;;;;;;14.48;56.24;98901.75;2627198;54;20031;-67
2022/06/15 03:52:44;;;;;;;5.35;3.72;;;;;;;14.40;56.14;98896.72;2624828;39;20450;-66
2022/06/15 03:55:14;;;;;;;5.40;3.85;;;;;;;14.30;56.13;98895.34;2624345;54;20037;-67
2022/06/15 03:57:43;;;;;;;7.03;3.85;;;;;;;14.27;56.22;98901.09;2623666;47;20094;-66
2022/06/15 04:00:21;;;;;;;4.00;3.58;;;;;;;14.27;56.15;98900.28;2623320;54;20034;-67
2022/06/15 04:02:54;;;;;;;4.50;3.55;;;;;;;14.29;56.58;98903.53;2624099;54;20026;-68
2022/06/15 04:05:49;;;;;;;6.72;3.47;;;;;;;14.31;56.28;98904.13;2623398;54;20126;-68
2022/06/15 04:08:43;;;;;;;5.35;4.20;;;;;;;14.28;56.44;98908.03;2622199;54;20134;-68
2022/06/15 04:14:10;;;;;;;5.78;4.28;;;;;;;14.25;56.68;98900.50;2623392;39;20552;-66
2022/06/15 04:16:42;;;;;;;5.57;3.97;;;;;;;14.34;56.51;98906.38;2621333;54;20037;-65
2022/06/15 04:19:12;;;;;;;5.10;4.05;;;;;;;14.46;56.32;98906.50;2624858;54;20081;-66
2022/06/15 04:21:49;;;;;;;4.70;3.47;;;;;;;14.63;56.03;98915.63;2624719;54;20073;-67
2022/06/15 04:24:20;;;;;;;4.32;3.60;;;;;;;14.79;55.82;98908.94;2626934;47;20026;-64
2022/06/15 04:26:52;;;;;;;4.13;3.40;;;;;;;14.96;55.38;98911.88;2627157;54;20038;-66
2022/06/15 04:29:24;;;;;;;4.07;3.40;;;;;;;15.05;55.46;98911.38;2625222;54;20026;-66
2022/06/15 04:31:55;;;;;;;4.93;4.07;;;;;;;15.13;54.73;98914.78;2624294;46;20573;-67
2022/06/15 04:34:27;;;;;;;5.50;4.25;;;;;;;15.22;54.78;98916.13;2625004;54;20104;-66
2022/06/15 04:37:00;;;;;;;4.88;3.65;;;;;;;15.25;54.65;98915.69;2623776;54;20510;-66
2022/06/15 04:39:30;;;;;;;4.95;3.42;;;;;;;15.18;54.69;98912.28;2623956;47;20022;-66
2022/06/15 04:42:00;;;;;;;12.85;8.63;;;;;;;15.31;54.21;98909.50;2623764;39;20470;-65
2022/06/15 04:44:30;;;;;;;5.10;3.88;;;;;;;15.38;54.16;98912.91;2623978;54;20099;-65
2022/06/15 04:47:01;;;;;;;5.22;3.90;;;;;;;15.46;53.90;98914.47;2624063;54;20023;-66
2022/06/15 04:49:30;;;;;;;5.50;3.92;;;;;;;15.65;54.10;98916.13;2623801;47;20035;-65
2022/06/15 04:52:03;;;;;;;6.15;4.05;;;;;;;15.77;53.20;98914.34;2627304;39;20438;-66
2022/06/15 04:54:33;;;;;;;5.18;3.58;;;;;;;15.89;53.04;98910.94;2624562;39;20541;-65
2022/06/15 04:57:07;;;;;;;4.72;3.55;;;;;;;16.03;52.75;98915.03;2622998;51;20027;-66
2022/06/15 04:59:40;;;;;;;3.72;3.33;;;;;;;16.14;52.82;98913.47;2623545;54;20038;-66
2022/06/15 05:02:10;;;;;;;5.57;4.20;;;;;;;16.24;52.22;98919.06;2624008;39;20569;-65
2022/06/15 05:04:42;;;;;;;4.53;3.65;;;;;;;16.33;51.70;98923.06;2623610;39;20402;-65
2022/06/15 05:07:18;;;;;;;4.17;3.30;;;;;;;16.39;51.29;98926.69;2624712;39;20469;-67
2022/06/15 05:09:49;;;;;;;3.85;3.40;;;;;;;16.50;51.52;98920.56;2622592;54;20034;-67
2022/06/15 05:12:18;;;;;;;7.72;3.70;;;;;;;16.65;51.62;98930.81;2622938;54;20023;-65
2022/06/15 05:14:49;;;;;;;4.88;3.17;;;;;;;16.68;50.96;98931.16;2623288;54;20026;-65
2022/06/15 05:17:20;;;;;;;4.47;3.63;;;;;;;16.69;50.70;98924.78;2622764;54;20050;-67
2022/06/15 05:19:50;;;;;;;4.28;3.88;;;;;;;16.80;50.96;98936.56;2621575;39;20407;-68
2022/06/15 05:22:23;;;;;;;5.82;4.50;;;;;;;16.91;50.38;98933.09;2619674;54;20118;-65
2022/06/15 05:24:53;;;;;;;5.95;4.03;;;;;;;16.95;50.08;98928.13;2619908;54;20030;-66
2022/06/15 05:27:22;;;;;;;7.05;3.95;;;;;;;17.01;50.23;98927.97;2619643;54;20034;-66
2022/06/15 05:29:57;;;;;;;6.40;4.13;;;;;;;17.11;49.90;98927.44;2620160;31;20531;-65
2022/06/15 05:32:28;;;;;;;8.18;3.70;;;;;;;17.21;49.50;98924.97;2619474;54;20035;-65
2022/06/15 05:35:00;;;;;;;4.88;3.47;;;;;;;17.24;49.36;98924.53;2618752;47;20045;-66
2022/06/15 05:37:35;;;;;;;9.68;4.10;;;;;;;17.20;48.55;98925.22;2619455;54;20035;-65
2022/06/15 05:40:06;;;;;;;7.63;3.40;;;;;;;17.21;48.50;98929.50;2618950;47;20592;-66
2022/06/15 05:42:37;;;;;;;5.45;3.33;;;;;;;17.29;48.54;98921.16;2619077;54;20038;-66
2022/06/15 05:45:09;;;;;;;6.80;3.63;;;;;;;17.42;48.32;98923.56;2620203;54;20034;-66
2022/06/15 05:47:39;;;;;;;7.13;3.70;;;;;;;17.30;47.82;98920.09;2619667;54;20035;-66
2022/06/15 05:50:20;;;;;;;6.68;3.55;;;;;;;17.32;48.37;98920.69;2620684;54;20038;-66
2022/06/15 05:53:24;;;;;;;8.50;3.58;;;;;;;17.53;47.21;98916.59;2622701;39;20435;-67
2022/06/15 05:55:54;;;;;;;7.18;3.53;;;;;;;17.61;46.98;98918.09;2622640;54;20551;-67
2022/06/15 05:58:23;;;;;;;8.50;3.55;;;;;;;17.76;47.46;98919.25;2622523;54;20035;-67
2022/06/15 06:00:53;;;;;;;5.35;3.95;;;;;;;17.97;46.95;98911.66;2621103;54;20550;-67
2022/06/15 06:03:23;;;;;;;5.20;3.55;;;;;;;18.07;46.46;98909.97;2621707;47;20565;-69
2022/06/15 06:05:53;;;;;;;6.68;3.42;;;;;;;18.16;46.26;98909.59;2621937;54;20539;-68
2022/06/15 06:08:25;;;;;;;7.05;3.40;;;;;;;18.23;45.93;98911.06;2621716;54;20026;-68
2022/06/15 06:10:54;;;;;;;7.47;4.00;;;;;;;18.32;45.08;98914.97;2621767;54;20030;-69
2022/06/15 06:13:24;;;;;;;4.47;3.33;;;;;;;18.30;45.28;98913.59;2621746;54;20027;-68
2022/06/15 06:15:55;;;;;;;9.30;3.55;;;;;;;18.41;45.21;98907.41;2620669;54;20042;-67
2022/06/15 06:18:25;;;;;;;5.18;3.72;;;;;;;18.57;44.66;98905.75;2620120;54;20023;-66
2022/06/15 06:20:55;;;;;;;7.93;3.40;;;;;;;18.66;44.26;98890.94;2620865;54;20026;-66
2022/06/15 06:23:28;;;;;;;4.97;2.95;;;;;;;18.78;44.78;98902.44;2620471;46;20026;-67
2022/06/15 06:25:57;;;;;;;5.28;3.05;;;;;;;18.87;44.31;98904.69;2621007;54;20039;-67
2022/06/15 06:28:30;;;;;;;4.60;3.25;;;;;;;18.87;44.22;98902.81;2620377;54;20037;-66
2022/06/15 06:31:02;;;;;;;7.10;3.10;;;;;;;18.84;44.68;98894.47;2620833;54;20038;-67
2022/06/15 06:33:34;;;;;;;5.30;3.67;;;;;;;18.84;44.60;98900.63;2620498;54;20538;-67
2022/06/15 06:36:07;;;;;;;5.70;3.15;;;;;;;19.03;44.35;98903.88;2620865;54;20061;-67
2022/06/15 06:38:39;;;;;;;;;;;;;;;19.14;44.12;98894.91;2620588;54;20038;-66
2022/06/15 06:41:11;;;;;;;10.25;3.28;;;;;;;19.23;44.42;98904.19;2620753;54;19939;-66
2022/06/15 06:43:41;;;;;;;5.20;2.80;;;;;;;19.34;44.06;98902.44;2620673;54;20039;-66
2022/06/15 06:46:10;;;;;;;5.50;3.47;;;;;;;19.45;44.48;98896.16;2620326;54;20034;-67
2022/06/15 06:48:40;;;;;;;7.47;3.17;;;;;;;19.69;43.16;98915.53;2620054;54;20034;-67
2022/06/15 06:51:10;;;;;;;5.10;3.38;;;;;;;19.76;43.41;98907.31;2620126;54;20034;-67
2022/06/15 06:53:42;;;;;;;7.40;4.68;;;;;;;19.86;42.95;98904.75;2619602;54;20262;-67
2022/06/15 06:56:14;;;;;;;5.43;3.05;;;;;;;19.93;42.44;98910.75;2620251;54;20034;-67
2022/06/15 07:24:27;;;;;;;5.53;3.03;;;;;;;20.86;41.58;98910.59;2594177;47;20201;-65
2022/06/15 07:26:56;;;;;;;3.80;2.75;;;;;;;21.07;40.86;98911.56;2621634;54;20026;-66
2022/06/15 07:29:26;;;;;;;12.65;4.28;;;;;;;21.26;41.08;98915.44;2746106;36;139118;-66
2022/06/15 07:31:58;;;;;;;6.03;2.80;;;;;;;21.40;40.50;98910.44;2621613;47;20657;-66
2022/06/15 07:51:31;;;;;;;7.81;3.94;;;;;;;22.00;39.47;98924.41;2629835;36;4644185;-66
2022/06/15 08:07:17;;;;;;;4.85;2.47;;;;;;;22.73;38.40;98914.34;2547776;54;52223;-67
2022/06/15 08:09:47;;;;;;;6.70;2.65;;;;;;;22.62;38.15;98918.13;2627031;54;20034;-66
2022/06/15 08:12:19;;;;;;;3.90;2.60;;;;;;;22.59;38.47;98921.34;2626251;54;20077;-67
2022/06/15 08:14:51;;;;;;;6.72;2.70;;;;;;;22.70;37.94;98922.19;2625565;54;20019;-67
2022/06/15 08:17:24;;;;;;;2.80;2.53;;;;;;;22.75;37.62;98917.59;2623193;54;20030;-66
2022/06/15 08:19:58;;;;;;;6.63;3.13;;;;;;;22.80;37.38;98906.00;2622510;46;20049;-65
2022/06/15 08:22:31;;;;;;;6.72;2.70;;;;;;;22.83;37.08;98908.16;2622517;54;20031;-67
2022/06/15 08:25:02;;;;;;;4.55;2.40;;;;;;;22.86;37.42;98906.81;2623205;54;20038;-67
2022/06/15 08:27:32;;;;;;;8.48;3.10;;;;;;;23.00;37.13;98902.53;2622980;54;20521;-66
2022/06/15 08:30:01;;;;;;;11.13;2.78;;;;;;;23.07;36.85;98904.97;2623092;54;20121;-66
2022/06/15 08:32:31;;;;;;;4.10;2.58;;;;;;;23.18;36.82;98904.63;2622138;54;20038;-66
2022/06/15 08:35:00;;;;;;;7.85;2.80;;;;;;;23.32;36.56;98901.41;2622421;38;20448;-66
2022/06/15 08:37:33;;;;;;;5.30;2.45;;;;;;;23.34;35.89;98902.72;2622479;54;20035;-66
2022/06/15 08:40:02;;;;;;;5.87;2.60;;;;;;;23.43;36.15;98906.50;2622444;54;20041;-66
2022/06/15 08:42:41;;;;;;;2.35;1.98;;;;;;;23.52;36.27;98900.53;2622924;54;20389;-66
2022/06/15 08:45:21;;;;;;;5.00;2.75;;;;;;;23.63;36.35;98894.81;2622556;54;20611;-65
2022/06/15 08:48:09;;;;;;;3.17;2.50;;;;;;;23.74;36.23;98892.91;2623214;54;20042;-66
2022/06/15 08:50:44;;;;;;;4.43;2.55;;;;;;;23.90;36.27;98893.66;2623525;54;20050;-66
2022/06/15 08:53:21;;;;;;;6.03;2.40;;;;;;;23.87;35.78;98896.91;2623159;54;20030;-65
2022/06/15 08:56:01;;;;;;;11.32;2.95;;;;;;;23.95;35.84;98899.03;2623108;54;20038;-66
2022/06/15 08:58:41;;;;;;;3.63;2.40;;;;;;;23.98;35.51;98895.78;2622949;54;20572;-67
2022/06/15 09:01:18;;;;;;;4.18;2.47;;;;;;;23.92;36.00;98895.00;2623143;54;20173;-66
2022/06/15 09:03:54;;;;;;;5.07;2.55;;;;;;;24.05;35.64;98892.78;2623027;54;20525;-67
2022/06/15 09:06:38;;;;;;;3.10;2.35;;;;;;;24.16;35.42;98889.72;2619843;54;20038;-66
2022/06/15 09:09:23;;;;;;;2.72;2.22;;;;;;;24.11;35.25;98889.75;2619491;54;20035;-66
2022/06/15 09:15:03;;;;;;;6.13;2.50;;;;;;;24.43;35.03;98889.31;2619320;54;20039;-66
2022/06/15 09:17:34;;;;;;;8.05;2.67;;;;;;;24.51;35.21;98896.03;2619610;54;20077;-66
2022/06/15 09:20:08;;;;;;;6.60;2.60;;;;;;;24.55;34.91;98897.06;2618798;54;20039;-66
2022/06/15 09:22:42;;;;;;;4.53;2.40;;;;;;;24.64;34.78;98894.56;2619290;54;20045;-67
2022/06/15 09:25:18;;;;;;;5.72;2.70;;;;;;;24.60;34.36;98894.31;2620794;47;20035;-66
2022/06/15 09:27:51;;;;;;;3.28;2.67;;;;;;;24.61;35.04;98890.53;2618802;54;20134;-67
2022/06/15 09:30:21;;;;;;;;;;;;;;;24.79;34.95;98890.94;2620540;39;20448;-65
2022/06/15 09:32:56;;;;;;;7.10;2.67;;;;;;;24.89;34.42;98877.31;2619338;54;19977;-66
2022/06/15 09:35:31;;;;;;;2.58;2.25;;;;;;;25.00;34.44;98880.75;2619353;54;20034;-66
2022/06/15 09:38:02;;;;;;;5.47;2.38;;;;;;;25.06;34.68;98887.72;2619470;54;20569;-66
2022/06/15 09:40:39;;;;;;;8.18;3.05;;;;;;;25.23;34.28;98887.28;2619482;54;20588;-66
2022/06/15 09:43:14;;;;;;;4.28;2.42;;;;;;;25.23;34.29;98879.19;2619380;54;20034;-65
2022/06/15 09:45:49;;;;;;;3.97;2.60;;;;;;;25.34;34.19;98877.97;2619584;54;20088;-65
2022/06/15 09:48:27;;;;;;;5.03;2.70;;;;;;;25.55;33.85;98878.56;2619308;54;20063;-66
2022/06/15 09:51:03;;;;;;;5.35;2.97;;;;;;;25.66;33.83;98878.13;2619346;54;20568;-66
2022/06/15 09:53:43;;;;;;;4.80;2.42;;;;;;;25.84;33.62;98873.91;2618975;54;20042;-66
2022/06/15 09:56:18;;;;;;;4.43;3.55;;;;;;;25.98;33.68;98878.59;2619159;54;20096;-65
2022/06/15 09:58:57;;;;;;;5.97;2.78;;;;;;;26.11;33.24;98888.69;2620186;54;20113;-66
2022/06/15 10:01:32;;;;;;;8.60;2.92;;;;;;;26.12;32.93;98885.69;2622530;54;20039;-65
2022/06/15 10:04:04;;;;;;;4.97;2.53;;;;;;;26.10;33.08;98877.06;2622464;54;20022;-67
2022/06/15 10:06:58;;;;;;;4.60;3.22;;;;;;;26.21;32.60;98876.91;2622563;54;20049;-67
2022/06/15 10:09:40;;;;;;;3.97;2.78;;;;;;;26.36;32.68;98874.78;2622128;54;20039;-65
2022/06/15 10:15:25;;;;;;;4.15;2.92;;;;;;;26.68;32.20;98874.03;2618816;54;20046;-65
2022/06/15 10:17:58;;;;;;;2.97;2.78;;;;;;;26.77;31.71;98865.19;2618768;54;20038;-65
2022/06/15 10:20:33;;;;;;;6.00;3.22;;;;;;;26.78;31.73;98864.09;2619099;54;20073;-65
2022/06/15 10:23:06;;;;;;;5.82;2.97;;;;;;;26.67;31.84;98877.84;2620659;47;20030;-66
2022/06/15 10:25:39;;;;;;;5.18;2.92;;;;;;;26.72;31.91;98857.97;2624722;54;20027;-66
2022/06/15 10:28:15;;;;;;;;;;;;;;;26.85;31.70;98853.69;2624336;39;20322;-65
2022/06/15 10:30:58;;;;;;;5.40;2.88;;;;;;;26.98;31.41;98855.59;2623032;54;19939;-64
2022/06/15 10:33:38;;;;;;;4.30;3.08;;;;;;;27.20;31.07;98863.13;2619697;47;20603;-65
2022/06/15 10:36:22;;;;;;;4.00;3.22;;;;;;;27.37;30.52;98859.78;2619265;54;20077;-64
2022/06/15 10:38:57;;;;;;;5.88;3.33;;;;;;;27.26;30.89;98863.81;2619158;54;20089;-64
2022/06/15 10:41:49;;;;;;;4.70;3.45;;;;;;;27.21;30.53;98855.78;2618788;54;20022;-65
2022/06/15 10:44:30;;;;;;;6.10;3.38;;;;;;;27.23;30.40;98845.41;2619113;54;20053;-65
2022/06/15 10:47:03;;;;;;;8.82;3.33;;;;;;;27.31;29.22;98848.25;2618867;54;20055;-65
2022/06/15 10:49:36;;;;;;;3.80;2.90;;;;;;;27.15;29.84;98850.44;2618605;47;20035;-65
2022/06/15 10:52:19;;;;;;;4.72;3.45;;;;;;;27.19;30.05;98842.50;2618825;54;20034;-64
2022/06/15 11:03:13;;;;;;;3.45;2.80;;;;;;;27.42;28.76;98846.13;2618424;54;20557;-66
2022/06/15 11:05:46;;;;;;;7.07;2.90;;;;;;;27.37;28.59;98838.88;2619048;54;20030;-65
2022/06/15 11:08:19;;;;;;;4.43;2.60;;;;;;;27.39;29.15;98828.53;2618307;54;20029;-67
2022/06/15 11:10:52;;;;;;;5.35;3.03;;;;;;;27.44;28.99;98833.06;2618437;54;20571;-68
2022/06/15 11:13:37;;;;;;;4.15;2.83;;;;;;;27.47;28.80;98831.63;2618312;54;20533;-66
2022/06/15 11:19:14;;;;;;;6.78;2.78;;;;;;;27.54;28.90;98832.03;2617892;39;20425;-68
2022/06/15 11:21:49;;;;;;;3.47;2.83;;;;;;;27.66;28.94;98824.97;2617720;54;20069;-67
2022/06/15 11:24:36;;;;;;;3.47;3.17;;;;;;;27.72;28.71;98824.84;2618296;54;20034;-65
2022/06/15 11:27:18;;;;;;;6.03;2.72;;;;;;;27.73;27.86;98826.50;2618736;39;20455;-67
2022/06/15 11:29:52;;;;;;;3.03;2.20;;;;;;;27.82;27.58;98828.19;2618391;54;20030;-67
2022/06/15 11:32:39;;;;;;;7.78;2.33;;;;;;;27.86;27.04;98823.75;2618324;54;20073;-67
2022/06/15 11:35:21;;;;;;;5.93;2.63;;;;;;;28.00;27.13;98823.72;2618428;54;20042;-67
2022/06/15 11:37:57;;;;;;;7.30;4.22;;;;;;;28.20;26.42;98830.59;2619479;31;20542;-66
2022/06/15 11:40:36;;;;;;;3.58;2.88;;;;;;;28.35;25.14;98821.28;2618746;54;20038;-66
2022/06/15 11:43:15;;;;;;;5.97;3.95;;;;;;;28.43;25.22;98819.75;2618602;54;20030;-66
2022/06/15 11:45:55;;;;;;;3.85;2.47;;;;;;;28.37;26.29;98810.91;2618228;54;20537;-66
2022/06/15 11:48:40;;;;;;;3.35;2.80;;;;;;;28.47;26.54;98816.13;2618763;39;20429;-66
2022/06/15 11:51:23;;;;;;;9.02;3.25;;;;;;;28.65;26.11;98822.44;2617933;47;20139;-67
2022/06/15 11:54:12;;;;;;;4.85;2.92;;;;;;;28.72;26.00;98814.66;2622777;47;20082;-66
2022/06/15 11:56:50;;;;;;;5.15;3.25;;;;;;;28.69;26.17;98806.31;2623381;54;20046;-66
2022/06/15 11:59:33;;;;;;;7.63;3.28;;;;;;;28.68;26.54;98810.16;2623434;54;20027;-67
2022/06/15 12:02:10;;;;;;;5.03;2.95;;;;;;;28.73;26.19;98801.84;2622396;54;20019;-66
2022/06/15 12:05:22;;;;;;;4.55;2.70;;;;;;;28.79;25.48;98806.06;2623154;39;20403;-66
2022/06/15 12:08:09;;;;;;;4.82;2.60;;;;;;;28.68;25.98;98804.72;2618868;39;20483;-66
2022/06/15 12:10:46;;;;;;;3.10;2.40;;;;;;;28.66;26.03;98801.50;2618653;54;20038;-65
2022/06/15 12:13:31;;;;;;;3.60;2.53;;;;;;;28.94;25.78;98796.66;2618592;54;20034;-66
2022/06/15 12:16:09;;;;;;;6.93;2.97;;;;;;;29.08;24.92;98787.31;2618950;39;20445;-65
2022/06/15 12:19:00;;;;;;;6.03;2.78;;;;;;;29.31;24.01;98795.38;2618612;54;20031;-66
2022/06/15 12:21:38;;;;;;;5.93;2.95;;;;;;;29.37;24.01;98796.84;2618413;54;20062;-65
2022/06/15 12:24:20;;;;;;;3.67;2.97;;;;;;;29.32;24.57;98792.38;2618732;54;20536;-65
2022/06/15 12:27:01;;;;;;;3.10;2.75;;;;;;;29.33;24.90;98795.88;2618285;54;20015;-64
2022/06/15 12:29:43;;;;;;;5.25;2.20;;;;;;;29.40;25.20;98787.25;2618359;54;20130;-64
2022/06/15 12:35:17;;;;;;;4.97;2.50;;;;;;;29.38;25.32;98780.19;2617614;54;20026;-65
2022/06/15 12:37:55;;;;;;;4.28;2.42;;;;;;;29.41;25.31;98778.78;2618183;54;20530;-64
2022/06/15 12:40:33;;;;;;;5.28;2.92;;;;;;;29.64;25.42;98773.22;2618369;54;20565;-65
2022/06/15 12:43:18;;;;;;;4.20;2.60;;;;;;;29.77;24.75;98777.72;2619147;54;20034;-65
2022/06/15 12:45:54;;;;;;;3.28;2.72;;;;;;;29.78;24.33;98771.16;2620174;31;20513;-65
2022/06/15 12:48:33;;;;;;;3.22;2.53;;;;;;;29.81;24.20;98774.03;2619883;39;20445;-63
2022/06/15 12:51:09;;;;;;;3.85;2.40;;;;;;;29.99;23.95;98774.84;2619879;54;20033;-66
2022/06/15 12:53:49;;;;;;;3.67;2.50;;;;;;;30.04;23.69;98777.38;2618218;47;20023;-64
2022/06/15 12:56:33;;;;;;;4.32;2.38;;;;;;;30.13;23.10;98771.97;2620414;54;20026;-66
2022/06/15 12:59:17;;;;;;;4.30;3.63;;;;;;;30.22;23.31;98771.97;2627127;39;20383;-66
2022/06/15 13:01:58;;;;;;;5.07;3.13;;;;;;;30.35;22.66;98760.06;2624815;54;20033;-67
2022/06/15 13:04:38;;;;;;;2.63;2.30;;;;;;;30.42;22.99;98767.78;2619354;54;20077;-67
2022/06/15 13:07:24;;;;;;;3.03;2.40;;;;;;;30.41;22.74;98771.59;2619834;39;20433;-66
2022/06/15 13:10:36;;;;;;;7.32;2.05;;;;;;;30.41;23.11;98772.41;2619642;54;20030;-66
2022/06/15 13:13:08;;;;;;;3.47;2.40;;;;;;;30.46;22.76;98766.78;2618518;54;20041;-64
2022/06/15 13:15:57;;;;;;;2.35;2.08;;;;;;;30.66;22.01;98778.09;2620001;31;20527;-66
2022/06/15 13:18:42;;;;;;;4.38;2.30;;;;;;;30.64;21.22;98764.81;2620792;54;20052;-66
2022/06/15 13:21:12;;;;;;;3.75;2.53;;;;;;;30.68;20.76;98760.28;2622905;54;20038;-67
2022/06/15 13:23:44;;;;;;;7.68;2.50;;;;;;;30.53;20.94;98761.63;2619075;47;20042;-68
2022/06/15 13:26:20;;;;;;;4.27;3.10;;;;;;;30.65;20.97;98762.88;2619302;54;20034;-66
2022/06/15 13:29:19;;;;;;;3.67;2.28;;;;;;;30.80;20.60;98754.19;2619287;54;20031;-66
2022/06/15 13:32:01;;;;;;;4.32;2.28;;;;;;;30.79;20.68;98752.59;2618633;54;20038;-66
2022/06/15 13:34:49;;;;;;;9.23;6.07;;;;;;;30.98;21.32;98750.22;2618883;54;20027;-68